Time;durP1;ratioP1;P1;durP2;ratioP2;P2;SDS_P1;SDS_P2;PMS_P1;PMS_P2;Temp;Humidity;BMP_temperature;BMP_pressure;BME280_temperature;BME280_humidity;BME280_pressure;Samples;Min_cycle;Max_cycle;Signal;HPM_P1;HPM_P2
2022/04/04 00:01:16;;;;;;;10.60;3.45;;;;;;;;;;5022972;28;20049;-67
2022/04/04 00:03:42;;;;;;;6.25;3.10;;;;;;;;;;5025502;28;20876;-67
2022/04/04 00:06:08;;;;;;;5.32;3.00;;;;;;;;;;5025279;28;20041;-67
2022/04/04 00:08:35;;;;;;;7.90;2.92;;;;;;;;;;5022040;28;20525;-67
2022/04/04 00:11:01;;;;;;;4.15;2.85;;;;;;;;;;5036690;28;20056;-67
2022/04/04 00:13:28;;;;;;;4.47;2.95;;;;;;;;;;5032246;28;20057;-67
2022/04/04 00:15:54;;;;;;;5.63;3.42;;;;;;;;;;5014856;28;20062;-67
2022/04/04 00:18:21;;;;;;;8.40;3.13;;;;;;;;;;5027992;28;20077;-67
2022/04/04 00:20:49;;;;;;;5.45;3.10;;;;;;;;;;5029700;28;20064;-66
2022/04/04 00:23:16;;;;;;;6.70;3.30;;;;;;;;;;5029013;28;20067;-67
2022/04/04 00:25:44;;;;;;;7.93;3.40;;;;;;;;;;5020505;28;20060;-67
2022/04/04 00:28:11;;;;;;;6.75;3.60;;;;;;;;;;5008430;28;20072;-67
2022/04/04 00:30:37;;;;;;;7.13;3.30;;;;;;;;;;5021352;28;20054;-67
2022/04/04 00:33:05;;;;;;;4.82;3.10;;;;;;;;;;5054922;28;20053;-67
2022/04/04 00:35:31;;;;;;;7.65;3.35;;;;;;;;;;5025828;28;20048;-67
2022/04/04 00:38:01;;;;;;;6.28;4.03;;;;;;;;;;5042811;28;20053;-67
2022/04/04 00:40:27;;;;;;;7.78;4.00;;;;;;;;;;5052946;28;20053;-67
2022/04/04 00:42:54;;;;;;;7.63;3.40;;;;;;;;;;5016405;28;20057;-67
2022/04/04 00:45:20;;;;;;;8.30;3.90;;;;;;;;;;5040038;28;20404;-67
2022/04/04 00:47:46;;;;;;;5.53;3.28;;;;;;;;;;5044205;28;20057;-67
2022/04/04 00:50:13;;;;;;;7.88;3.70;;;;;;;;;;5028928;28;20614;-67
2022/04/04 00:52:39;;;;;;;6.28;3.72;;;;;;;;;;5028665;28;20053;-67
2022/04/04 00:55:09;;;;;;;7.25;4.22;;;;;;;;;;5034147;28;20045;-67
2022/04/04 00:57:39;;;;;;;8.30;4.32;;;;;;;;;;5029760;28;20150;-67
2022/04/04 01:00:06;;;;;;;9.05;4.63;;;;;;;;;;5021904;28;20056;-67
2022/04/04 01:02:32;;;;;;;12.05;4.50;;;;;;;;;;5028615;28;20049;-67
2022/04/04 01:04:59;;;;;;;9.90;4.50;;;;;;;;;;5036411;28;20481;-67
2022/04/04 01:07:25;;;;;;;7.30;4.60;;;;;;;;;;5035197;28;20063;-67
2022/04/04 01:09:51;;;;;;;8.63;5.00;;;;;;;;;;5032496;28;20379;-67
2022/04/04 01:12:21;;;;;;;7.95;4.65;;;;;;;;;;5032022;28;20057;-67
2022/04/04 01:14:48;;;;;;;7.93;4.50;;;;;;;;;;5035920;28;20064;-67
2022/04/04 01:17:15;;;;;;;8.25;4.15;;;;;;;;;;5035026;28;20062;-67
2022/04/04 01:19:42;;;;;;;7.63;3.85;;;;;;;;;;5040039;28;20045;-67
2022/04/04 01:22:10;;;;;;;9.52;4.65;;;;;;;;;;5029383;28;20057;-67
2022/04/04 01:24:38;;;;;;;8.07;4.47;;;;;;;;;;5039662;28;20052;-67
2022/04/04 01:27:05;;;;;;;7.85;3.90;;;;;;;;;;5032965;28;20410;-67
2022/04/04 01:29:31;;;;;;;7.53;4.30;;;;;;;;;;5035497;28;20048;-67
2022/04/04 01:31:58;;;;;;;7.32;4.82;;;;;;;;;;5042120;28;20049;-67
2022/04/04 01:34:24;;;;;;;6.22;4.00;;;;;;;;;;5037599;28;20068;-67
2022/04/04 01:36:51;;;;;;;5.60;3.70;;;;;;;;;;5033807;28;20048;-67
2022/04/04 01:39:17;;;;;;;9.18;4.32;;;;;;;;;;5038133;28;20041;-67
2022/04/04 01:41:44;;;;;;;9.02;4.40;;;;;;;;;;5047544;28;20053;-67
2022/04/04 01:44:10;;;;;;;6.82;4.50;;;;;;;;;;5021487;28;20270;-67
2022/04/04 01:46:36;;;;;;;9.90;4.55;;;;;;;;;;5045476;28;20045;-67
2022/04/04 01:49:04;;;;;;;5.78;3.83;;;;;;;;;;5030865;28;20048;-67
2022/04/04 01:51:31;;;;;;;7.05;4.18;;;;;;;;;;5032098;28;20509;-66
2022/04/04 01:53:58;;;;;;;6.63;3.67;;;;;;;;;;5036453;28;20057;-67
2022/04/04 01:56:24;;;;;;;6.20;4.32;;;;;;;;;;5031294;28;20065;-67
2022/04/04 01:58:51;;;;;;;7.80;3.63;;;;;;;;;;5042579;28;20072;-67
2022/04/04 02:01:18;;;;;;;7.50;4.60;;;;;;;;;;5031712;28;20065;-67
2022/04/04 02:03:46;;;;;;;10.27;4.55;;;;;;;;;;5020977;28;20088;-66
2022/04/04 02:06:13;;;;;;;7.23;5.27;;;;;;;;;;5030201;28;20055;-67
2022/04/04 02:08:42;;;;;;;7.28;4.80;;;;;;;;;;5039319;28;20045;-67
2022/04/04 02:11:08;;;;;;;10.32;5.10;;;;;;;;;;5034381;28;20756;-66
2022/04/04 02:13:34;;;;;;;7.57;4.90;;;;;;;;;;5037594;28;20045;-67
2022/04/04 02:16:02;;;;;;;7.40;5.32;;;;;;;;;;5040284;28;20410;-67
2022/04/04 02:18:29;;;;;;;7.57;5.00;;;;;;;;;;5020820;28;20054;-66
2022/04/04 02:20:55;;;;;;;9.05;5.28;;;;;;;;;;5017601;28;20080;-67
2022/04/04 02:23:22;;;;;;;9.45;5.15;;;;;;;;;;5020557;28;20061;-67
2022/04/04 02:25:49;;;;;;;6.75;5.35;;;;;;;;;;5019119;28;20727;-67
2022/04/04 02:28:16;;;;;;;10.98;6.00;;;;;;;;;;5027880;28;20045;-66
2022/04/04 02:30:43;;;;;;;7.38;5.38;;;;;;;;;;5032379;28;20040;-66
2022/04/04 02:33:10;;;;;;;7.85;5.55;;;;;;;;;;5042852;28;20060;-66
2022/04/04 02:35:36;;;;;;;9.77;6.60;;;;;;;;;;5038727;28;20065;-66
2022/04/04 02:38:02;;;;;;;10.63;5.93;;;;;;;;;;5026008;28;20053;-67
2022/04/04 02:40:29;;;;;;;10.02;5.80;;;;;;;;;;5038846;28;20049;-67
2022/04/04 02:42:55;;;;;;;10.05;6.55;;;;;;;;;;5037391;28;20084;-66
2022/04/04 02:45:22;;;;;;;8.60;5.88;;;;;;;;;;5031949;28;20049;-66
2022/04/04 02:47:48;;;;;;;9.45;6.90;;;;;;;;;;5014150;28;20578;-66
2022/04/04 02:50:15;;;;;;;9.20;6.38;;;;;;;;;;5026938;28;20061;-67
2022/04/04 02:52:41;;;;;;;9.15;6.55;;;;;;;;;;5026100;28;20038;-67
2022/04/04 02:57:53;;;;;;;11.90;7.05;;;;;;;;;;5022880;28;20384;-67
2022/04/04 03:00:19;;;;;;;8.20;6.13;;;;;;;;;;5035420;28;20044;-67
2022/04/04 03:02:47;;;;;;;9.98;6.43;;;;;;;;;;5034876;28;20063;-67
2022/04/04 03:05:13;;;;;;;9.50;6.78;;;;;;;;;;5036488;28;20486;-67
2022/04/04 03:07:40;;;;;;;9.75;6.70;;;;;;;;;;5039627;28;20478;-67
2022/04/04 03:10:07;;;;;;;10.45;7.10;;;;;;;;;;5039337;28;20510;-67
2022/04/04 03:12:38;;;;;;;11.95;7.10;;;;;;;;;;5027058;28;20049;-66
2022/04/04 03:15:05;;;;;;;11.77;6.88;;;;;;;;;;5029079;28;20068;-66
2022/04/04 03:17:31;;;;;;;9.10;6.53;;;;;;;;;;5026610;28;20054;-66
2022/04/04 03:19:58;;;;;;;9.43;6.78;;;;;;;;;;5034378;28;20053;-67
2022/04/04 03:22:24;;;;;;;10.02;6.85;;;;;;;;;;5030621;28;20064;-67
2022/04/04 03:24:50;;;;;;;11.25;6.85;;;;;;;;;;5039141;28;20052;-66
2022/04/04 03:27:17;;;;;;;10.93;6.90;;;;;;;;;;5032668;28;20421;-66
2022/04/04 03:29:48;;;;;;;11.05;6.30;;;;;;;;;;5045009;28;20087;-66
2022/04/04 03:32:14;;;;;;;10.23;6.25;;;;;;;;;;5034099;28;20052;-66
2022/04/04 03:34:41;;;;;;;10.48;6.82;;;;;;;;;;5040034;28;20046;-66
2022/04/04 03:37:07;;;;;;;10.10;6.47;;;;;;;;;;5029918;28;20541;-66
2022/04/04 03:39:33;;;;;;;10.80;6.70;;;;;;;;;;5018637;28;20045;-66
2022/04/04 03:41:59;;;;;;;10.48;6.78;;;;;;;;;;5034036;28;20053;-66
2022/04/04 03:44:26;;;;;;;12.70;6.45;;;;;;;;;;5032144;28;20418;-67
2022/04/04 03:46:52;;;;;;;12.90;7.28;;;;;;;;;;5026794;28;20049;-67
2022/04/04 03:49:19;;;;;;;10.32;6.90;;;;;;;;;;5035633;28;20056;-66
2022/04/04 03:51:45;;;;;;;11.27;6.60;;;;;;;;;;5035881;28;20045;-66
2022/04/04 03:54:12;;;;;;;12.38;5.95;;;;;;;;;;5041335;28;20045;-66
2022/04/04 03:56:39;;;;;;;11.07;6.85;;;;;;;;;;5041075;28;20080;-66
2022/04/04 03:59:05;;;;;;;10.18;6.40;;;;;;;;;;5042584;28;20053;-66
2022/04/04 04:01:31;;;;;;;10.15;6.97;;;;;;;;;;5037064;28;20054;-66
2022/04/04 04:03:58;;;;;;;11.25;6.32;;;;;;;;;;5032120;28;20049;-66
2022/04/04 04:06:24;;;;;;;11.30;6.60;;;;;;;;;;5033489;28;20048;-66
2022/04/04 04:08:50;;;;;;;8.93;5.57;;;;;;;;;;5036196;28;20057;-67
2022/04/04 04:11:17;;;;;;;8.75;6.55;;;;;;;;;;5039430;28;20417;-67
2022/04/04 04:13:44;;;;;;;8.63;6.10;;;;;;;;;;5039475;28;20048;-67
2022/04/04 04:16:13;;;;;;;8.73;6.00;;;;;;;;;;5046814;28;20490;-66
2022/04/04 04:18:40;;;;;;;8.43;5.90;;;;;;;;;;5043720;28;20052;-66
2022/04/04 04:21:07;;;;;;;14.07;6.25;;;;;;;;;;5022102;28;20060;-66
2022/04/04 04:23:40;;;;;;;12.35;6.25;;;;;;;;;;5038505;28;20048;-67
2022/04/04 04:26:08;;;;;;;11.27;6.40;;;;;;;;;;5022491;28;20045;-66
2022/04/04 04:28:35;;;;;;;6.97;5.05;;;;;;;;;;5027344;28;20053;-66
2022/04/04 04:31:02;;;;;;;10.85;5.63;;;;;;;;;;5018578;28;20052;-66
2022/04/04 04:33:29;;;;;;;10.55;5.50;;;;;;;;;;5033992;28;20073;-67
2022/04/04 04:35:57;;;;;;;8.88;5.72;;;;;;;;;;5028078;28;20071;-67
2022/04/04 04:38:23;;;;;;;11.03;6.10;;;;;;;;;;5034461;28;20063;-67
2022/04/04 04:40:49;;;;;;;8.55;5.28;;;;;;;;;;5035877;28;20414;-67
2022/04/04 04:43:16;;;;;;;10.27;5.95;;;;;;;;;;5029590;28;20060;-67
2022/04/04 04:45:43;;;;;;;9.82;5.38;;;;;;;;;;5045015;28;20111;-67
2022/04/04 04:48:09;;;;;;;8.55;5.68;;;;;;;;;;5020095;28;20513;-67
2022/04/04 04:50:35;;;;;;;9.20;5.50;;;;;;;;;;5040008;28;20053;-67
2022/04/04 04:53:02;;;;;;;9.98;6.85;;;;;;;;;;5051024;28;20049;-67
2022/04/04 04:55:28;;;;;;;12.98;6.68;;;;;;;;;;5015884;28;20467;-67
2022/04/04 04:57:55;;;;;;;10.23;5.95;;;;;;;;;;5025952;28;20479;-67
2022/04/04 05:00:22;;;;;;;9.38;5.90;;;;;;;;;;5021322;28;20059;-67
2022/04/04 05:03:24;;;;;;;10.07;6.10;;;;;;;;;;5038630;28;20049;-67
2022/04/04 05:05:36;;;;;;;9.20;5.85;;;;;;;;;;5022602;28;20064;-67
2022/04/04 05:08:03;;;;;;;8.07;6.22;;;;;;;;;;5036657;28;20259;-67
2022/04/04 05:10:29;;;;;;;9.57;6.57;;;;;;;;;;5028829;28;20050;-67
2022/04/04 05:12:56;;;;;;;9.60;5.90;;;;;;;;;;5030765;28;20067;-67
2022/04/04 05:15:23;;;;;;;9.35;5.45;;;;;;;;;;5033594;28;20083;-67
2022/04/04 05:17:50;;;;;;;11.63;6.95;;;;;;;;;;5020514;28;20053;-67
2022/04/04 05:20:16;;;;;;;9.73;6.32;;;;;;;;;;5026675;28;20060;-67
2022/04/04 05:22:42;;;;;;;12.52;6.75;;;;;;;;;;5025989;28;20072;-67
2022/04/04 05:25:09;;;;;;;9.68;6.50;;;;;;;;;;5042254;28;20053;-66
2022/04/04 05:27:36;;;;;;;11.55;6.03;;;;;;;;;;5040186;28;20067;-67
2022/04/04 05:30:02;;;;;;;9.27;6.35;;;;;;;;;;5039032;28;20063;-66
2022/04/04 05:32:29;;;;;;;10.45;6.18;;;;;;;;;;5039144;28;20053;-66
2022/04/04 05:34:55;;;;;;;11.55;6.53;;;;;;;;;;5029283;28;20049;-66
2022/04/04 05:37:21;;;;;;;10.45;5.72;;;;;;;;;;5026430;28;20045;-67
2022/04/04 05:39:48;;;;;;;10.32;6.40;;;;;;;;;;5019782;28;20091;-67
2022/04/04 05:42:16;;;;;;;10.25;6.88;;;;;;;;;;5046695;28;20057;-66
2022/04/04 05:44:42;;;;;;;11.93;6.18;;;;;;;;;;5032168;28;20047;-67
2022/04/04 05:47:13;;;;;;;9.90;6.85;;;;;;;;;;5032284;28;20049;-66
2022/04/04 05:49:40;;;;;;;9.93;6.07;;;;;;;;;;5036143;28;20055;-67
2022/04/04 05:52:07;;;;;;;10.75;6.10;;;;;;;;;;5034288;28;20510;-67
2022/04/04 05:54:33;;;;;;;9.45;6.18;;;;;;;;;;5029848;28;20049;-66
2022/04/04 05:57:00;;;;;;;12.15;6.60;;;;;;;;;;5020661;28;20050;-67
2022/04/04 05:59:26;;;;;;;11.18;6.65;;;;;;;;;;5028060;28;20076;-67
2022/04/04 06:01:52;;;;;;;10.38;6.63;;;;;;;;;;5026839;28;20152;-67
2022/04/04 06:04:19;;;;;;;11.25;7.32;;;;;;;;;;5036075;28;20056;-67
2022/04/04 06:06:46;;;;;;;10.32;6.30;;;;;;;;;;5026638;28;20255;-67
2022/04/04 06:09:13;;;;;;;11.98;7.28;;;;;;;;;;5021239;28;20063;-67
2022/04/04 06:11:39;;;;;;;7.10;4.60;;;;;;;;;;5029672;28;20060;-67
2022/04/04 06:14:05;;;;;;;10.10;6.18;;;;;;;;;;5023683;28;20045;-66
2022/04/04 06:16:32;;;;;;;14.18;7.32;;;;;;;;;;5036429;28;20046;-66
2022/04/04 06:18:59;;;;;;;11.18;5.85;;;;;;;;;;5026819;28;20053;-66
2022/04/04 06:21:25;;;;;;;15.35;6.75;;;;;;;;;;5021144;28;20060;-67
2022/04/04 06:23:52;;;;;;;9.55;5.50;;;;;;;;;;5039959;28;20049;-67
2022/04/04 06:26:18;;;;;;;10.93;6.38;;;;;;;;;;5028914;28;20049;-67
2022/04/04 06:28:44;;;;;;;10.80;6.03;;;;;;;;;;5038663;28;20079;-67
2022/04/04 06:31:11;;;;;;;14.27;6.40;;;;;;;;;;5024709;28;20053;-67
2022/04/04 06:33:39;;;;;;;8.85;5.32;;;;;;;;;;5049148;28;20057;-67
2022/04/04 06:36:05;;;;;;;10.20;6.07;;;;;;;;;;5030494;28;20064;-67
2022/04/04 06:38:33;;;;;;;12.60;7.10;;;;;;;;;;5020470;28;20061;-67
2022/04/04 06:40:59;;;;;;;12.20;6.05;;;;;;;;;;5025332;28;20063;-67
2022/04/04 06:43:25;;;;;;;15.57;7.25;;;;;;;;;;5014161;28;20518;-67
2022/04/04 06:45:52;;;;;;;8.82;5.97;;;;;;;;;;5030396;28;20584;-67
2022/04/04 06:48:18;;;;;;;10.40;6.45;;;;;;;;;;5039686;28;20071;-67
2022/04/04 06:50:44;;;;;;;10.80;6.35;;;;;;;;;;5042916;28;20505;-67
2022/04/04 06:53:11;;;;;;;9.75;6.40;;;;;;;;;;5055891;28;20045;-67
2022/04/04 06:55:51;;;;;;;9.32;5.88;;;;;;;;;;5015632;28;20050;-67
2022/04/04 06:58:17;;;;;;;9.00;6.30;;;;;;;;;;5029580;28;20052;-67
2022/04/04 07:00:45;;;;;;;11.68;5.80;;;;;;;;;;5032139;28;20671;-67
2022/04/04 07:03:12;;;;;;;13.53;6.33;;;;;;;;;;5040407;28;20057;-67
2022/04/04 07:05:38;;;;;;;10.45;5.22;;;;;;;;;;5039444;28;20045;-66
2022/04/04 07:08:04;;;;;;;13.43;5.32;;;;;;;;;;5039496;28;20045;-66
2022/04/04 07:10:32;;;;;;;11.70;5.88;;;;;;;;;;5028340;28;20058;-66
2022/04/04 07:12:59;;;;;;;12.43;5.90;;;;;;;;;;5024269;28;20064;-67
2022/04/04 07:15:25;;;;;;;8.40;4.93;;;;;;;;;;5030745;28;20404;-66
2022/04/04 07:17:51;;;;;;;7.53;4.80;;;;;;;;;;5035047;28;20451;-67
2022/04/04 07:20:19;;;;;;;8.55;4.95;;;;;;;;;;5062040;28;20079;-66
2022/04/04 07:22:45;;;;;;;7.47;4.65;;;;;;;;;;5027857;28;20045;-66
2022/04/04 07:25:14;;;;;;;9.18;5.05;;;;;;;;;;5019273;28;20345;-67
2022/04/04 07:27:41;;;;;;;8.48;4.95;;;;;;;;;;5022757;28;20556;-67
2022/04/04 07:30:07;;;;;;;7.90;5.53;;;;;;;;;;5017239;28;20103;-67
2022/04/04 07:32:37;;;;;;;9.40;5.03;;;;;;;;;;5042698;28;20068;-67
2022/04/04 07:35:04;;;;;;;9.50;5.32;;;;;;;;;;5026187;28;20048;-67
2022/04/04 07:37:31;;;;;;;11.50;5.47;;;;;;;;;;5021888;28;20053;-66
2022/04/04 07:39:58;;;;;;;12.15;6.15;;;;;;;;;;5021868;28;20053;-67
2022/04/04 07:42:24;;;;;;;7.70;4.82;;;;;;;;;;5020467;28;20037;-67
2022/04/04 07:44:50;;;;;;;8.40;5.65;;;;;;;;;;5042120;28;20300;-67
2022/04/04 07:47:17;;;;;;;8.68;6.10;;;;;;;;;;5020801;28;20057;-67
2022/04/04 07:49:43;;;;;;;10.23;6.63;;;;;;;;;;5025152;28;20056;-67
2022/04/04 07:52:10;;;;;;;12.68;6.20;;;;;;;;;;5031826;28;20040;-67
2022/04/04 07:54:36;;;;;;;10.63;5.72;;;;;;;;;;5030515;28;20072;-66
2022/04/04 07:57:02;;;;;;;9.25;5.50;;;;;;;;;;5044300;28;20060;-66
2022/04/04 07:59:29;;;;;;;11.27;6.60;;;;;;;;;;5029221;28;20048;-66
2022/04/04 08:01:55;;;;;;;9.77;6.22;;;;;;;;;;5022662;28;20068;-67
2022/04/04 08:04:22;;;;;;;9.50;6.85;;;;;;;;;;5013680;28;20103;-67
2022/04/04 08:06:48;;;;;;;9.45;6.45;;;;;;;;;;5024685;28;20054;-67
2022/04/04 08:09:15;;;;;;;9.23;6.05;;;;;;;;;;5022772;28;20521;-67
2022/04/04 08:11:41;;;;;;;11.25;7.68;;;;;;;;;;5034680;28;20060;-66
2022/04/04 08:14:11;;;;;;;10.73;6.47;;;;;;;;;;5035345;28;20415;-67
2022/04/04 08:16:37;;;;;;;12.70;8.40;;;;;;;;;;5020829;28;20075;-67
2022/04/04 08:19:04;;;;;;;13.73;8.02;;;;;;;;;;5027026;28;20045;-67
2022/04/04 08:21:30;;;;;;;13.57;7.70;;;;;;;;;;5018760;28;20056;-66
2022/04/04 08:23:57;;;;;;;10.25;7.47;;;;;;;;;;5024213;28;20057;-66
2022/04/04 08:26:23;;;;;;;8.50;5.97;;;;;;;;;;5030989;28;20050;-66
2022/04/04 08:28:49;;;;;;;16.58;7.72;;;;;;;;;;5026285;28;20041;-66
2022/04/04 08:31:16;;;;;;;13.00;7.10;;;;;;;;;;5028966;28;20056;-67
2022/04/04 08:33:43;;;;;;;9.00;5.90;;;;;;;;;;5027367;28;20132;-66
2022/04/04 08:36:09;;;;;;;10.00;7.05;;;;;;;;;;5031861;28;20049;-66
2022/04/04 08:38:38;;;;;;;9.88;6.90;;;;;;;;;;5031353;28;20405;-66
2022/04/04 08:41:05;;;;;;;11.80;7.43;;;;;;;;;;5034783;28;20111;-66
2022/04/04 08:43:39;;;;;;;12.48;7.13;;;;;;;;;;5040522;28;20436;-66
2022/04/04 08:46:06;;;;;;;16.60;7.03;;;;;;;;;;5023470;28;20072;-66
2022/04/04 08:48:34;;;;;;;10.20;6.60;;;;;;;;;;5033230;28;20067;-67
2022/04/04 08:51:01;;;;;;;10.80;7.82;;;;;;;;;;5032403;28;20286;-67
2022/04/04 08:53:28;;;;;;;12.60;7.45;;;;;;;;;;5053866;28;20064;-67
2022/04/04 08:55:57;;;;;;;11.30;7.15;;;;;;;;;;5016120;28;20064;-67
2022/04/04 08:58:24;;;;;;;10.88;7.20;;;;;;;;;;5027163;28;20422;-67
2022/04/04 09:00:50;;;;;;;12.00;7.72;;;;;;;;;;5030045;28;20060;-66
2022/04/04 09:03:21;;;;;;;16.27;7.72;;;;;;;;;;5016578;28;20065;-66
2022/04/04 09:05:51;;;;;;;13.30;7.85;;;;;;;;;;5022942;28;20057;-66
2022/04/04 09:08:23;;;;;;;10.25;7.70;;;;;;;;;;5018281;28;20041;-66
2022/04/04 09:10:56;;;;;;;13.65;8.20;;;;;;;;;;5037138;28;20522;-66
2022/04/04 09:13:24;;;;;;;12.27;7.50;;;;;;;;;;5013711;28;20059;-66
2022/04/04 09:15:56;;;;;;;13.98;8.00;;;;;;;;;;5037733;28;20053;-66
2022/04/04 09:18:35;;;;;;;14.02;7.55;;;;;;;;;;5019610;28;20084;-66
2022/04/04 09:21:03;;;;;;;14.57;9.13;;;;;;;;;;5022756;28;20566;-66
2022/04/04 09:23:33;;;;;;;13.95;7.35;;;;;;;;;;5036053;28;20041;-66
2022/04/04 09:26:00;;;;;;;13.40;9.02;;;;;;;;;;5026171;28;20049;-66
2022/04/04 09:28:27;;;;;;;15.55;8.70;;;;;;;;;;5034895;28;20048;-66
2022/04/04 09:31:05;;;;;;;10.80;7.20;;;;;;;;;;5028344;28;20053;-66
2022/04/04 09:33:36;;;;;;;10.63;8.70;;;;;;;;;;5041620;28;20055;-65
2022/04/04 09:36:04;;;;;;;11.68;7.88;;;;;;;;;;5023644;28;20159;-65
2022/04/04 09:38:33;;;;;;;14.25;8.23;;;;;;;;;;5030336;28;20072;-65
2022/04/04 09:41:19;;;;;;;15.35;9.07;;;;;;;;;;5030582;28;20048;-65
2022/04/04 09:43:52;;;;;;;14.13;8.80;;;;;;;;;;5020195;28;20060;-66
2022/04/04 09:46:19;;;;;;;13.52;8.90;;;;;;;;;;5036468;28;20616;-65
2022/04/04 09:49:06;;;;;;;12.13;8.88;;;;;;;;;;5029632;28;20045;-65
2022/04/04 09:51:34;;;;;;;15.55;8.93;;;;;;;;;;5038271;28;20488;-65
2022/04/04 09:54:02;;;;;;;13.88;10.10;;;;;;;;;;5027923;28;20049;-65
2022/04/04 09:56:28;;;;;;;10.82;8.70;;;;;;;;;;5027382;28;20362;-65
2022/04/04 09:58:56;;;;;;;12.50;9.40;;;;;;;;;;5031577;28;20049;-65
2022/04/04 10:01:22;;;;;;;21.40;9.53;;;;;;;;;;5028039;28;20060;-66
2022/04/04 10:03:51;;;;;;;16.58;9.48;;;;;;;;;;5034279;28;20837;-66
2022/04/04 10:06:18;;;;;;;14.25;9.90;;;;;;;;;;5021190;28;20053;-66
2022/04/04 10:08:45;;;;;;;14.10;9.02;;;;;;;;;;5028725;28;20056;-66
2022/04/04 10:11:12;;;;;;;13.57;9.70;;;;;;;;;;5020791;28;20581;-65
2022/04/04 10:13:39;;;;;;;12.82;8.05;;;;;;;;;;5022419;28;20342;-66
2022/04/04 10:16:05;;;;;;;13.02;9.05;;;;;;;;;;5018440;28;20048;-66
2022/04/04 10:18:32;;;;;;;13.48;9.55;;;;;;;;;;5029125;28;20049;-65
2022/04/04 10:20:59;;;;;;;16.70;9.60;;;;;;;;;;5023928;28;20054;-66
2022/04/04 10:23:26;;;;;;;15.70;9.93;;;;;;;;;;5010701;28;20073;-66
2022/04/04 10:25:53;;;;;;;13.82;9.95;;;;;;;;;;5024737;28;20096;-66
2022/04/04 10:28:27;;;;;;;12.35;8.73;;;;;;;;;;5016639;28;20494;-66
2022/04/04 10:30:56;;;;;;;13.25;8.48;;;;;;;;;;5032555;28;20044;-65
2022/04/04 10:33:24;;;;;;;13.30;8.52;;;;;;;;;;5018229;28;20048;-67
2022/04/04 10:36:06;;;;;;;15.98;9.80;;;;;;;;;;5026287;28;20369;-66
2022/04/04 10:38:34;;;;;;;14.05;8.60;;;;;;;;;;5025599;28;20045;-66
2022/04/04 10:41:03;;;;;;;10.83;7.83;;;;;;;;;;5017966;28;20548;-66
2022/04/04 10:43:36;;;;;;;14.63;10.82;;;;;;;;;;5025756;28;20205;-66
2022/04/04 10:46:04;;;;;;;11.65;9.55;;;;;;;;;;5015726;28;20521;-66
2022/04/04 10:48:32;;;;;;;18.08;11.40;;;;;;;;;;5026543;28;20048;-66
2022/04/04 10:51:03;;;;;;;14.88;10.30;;;;;;;;;;5025558;28;20049;-66
2022/04/04 10:53:37;;;;;;;14.32;10.00;;;;;;;;;;5034383;28;20411;-66
2022/04/04 10:56:04;;;;;;;11.63;8.38;;;;;;;;;;5025054;28;20056;-66
2022/04/04 10:58:30;;;;;;;13.20;10.60;;;;;;;;;;5035763;28;20053;-66
2022/04/04 11:01:06;;;;;;;13.10;10.15;;;;;;;;;;5029214;28;20060;-66
2022/04/04 11:03:34;;;;;;;15.93;10.63;;;;;;;;;;5018079;28;20053;-66
2022/04/04 11:09:11;;;;;;;13.20;10.73;;;;;;;;;;5014692;28;20049;-65
2022/04/04 11:11:49;;;;;;;14.52;9.57;;;;;;;;;;5026250;28;20049;-66
2022/04/04 11:14:17;;;;;;;17.10;9.95;;;;;;;;;;5026724;28;20055;-66
2022/04/04 11:17:02;;;;;;;10.67;8.40;;;;;;;;;;5025104;28;20046;-66
2022/04/04 11:19:29;;;;;;;11.13;7.05;;;;;;;;;;5010068;28;20064;-66
2022/04/04 11:21:56;;;;;;;7.10;6.10;;;;;;;;;;5020839;28;20052;-66
2022/04/04 11:24:30;;;;;;;9.52;6.25;;;;;;;;;;5025569;28;20053;-66
2022/04/04 11:26:57;;;;;;;9.68;6.80;;;;;;;;;;5027475;28;20060;-66
2022/04/04 11:29:25;;;;;;;11.48;7.15;;;;;;;;;;5036830;28;20510;-67
2022/04/04 11:31:51;;;;;;;14.80;8.77;;;;;;;;;;5031432;28;20051;-66
2022/04/04 11:34:21;;;;;;;12.48;8.63;;;;;;;;;;5024314;28;20288;-66
2022/04/04 11:36:47;;;;;;;10.25;7.90;;;;;;;;;;5032495;28;20064;-66
2022/04/04 11:39:15;;;;;;;11.65;8.82;;;;;;;;;;5026694;28;20060;-66
2022/04/04 11:41:51;;;;;;;7.85;6.05;;;;;;;;;;5031381;28;20160;-66
2022/04/04 11:44:25;;;;;;;14.07;8.77;;;;;;;;;;5023040;28;20725;-66
2022/04/04 11:47:05;;;;;;;10.88;6.95;;;;;;;;;;5032714;28;20056;-66
2022/04/04 11:49:32;;;;;;;12.77;9.63;;;;;;;;;;5030677;28;21037;-67
2022/04/04 11:52:02;;;;;;;15.50;9.98;;;;;;;;;;5036747;28;20587;-67
2022/04/04 11:54:37;;;;;;;15.60;9.52;;;;;;;;;;5030245;28;20064;-67
2022/04/04 11:57:04;;;;;;;13.13;9.07;;;;;;;;;;5014381;28;20060;-67
2022/04/04 11:59:35;;;;;;;14.88;10.07;;;;;;;;;;5023859;28;20045;-66
2022/04/04 12:02:08;;;;;;;11.77;9.57;;;;;;;;;;5024938;28;20383;-66
2022/04/04 12:04:36;;;;;;;12.45;9.32;;;;;;;;;;5048993;28;20053;-66
2022/04/04 12:07:03;;;;;;;14.10;10.18;;;;;;;;;;5026647;28;20147;-67
2022/04/04 12:09:34;;;;;;;11.00;9.10;;;;;;;;;;5037260;28;20056;-66
2022/04/04 12:12:07;;;;;;;13.23;8.55;;;;;;;;;;5037757;28;20056;-66
2022/04/04 12:14:37;;;;;;;11.55;8.82;;;;;;;;;;5027235;28;20045;-66
2022/04/04 12:17:04;;;;;;;10.15;8.35;;;;;;;;;;5023082;28;20072;-66
2022/04/04 12:19:30;;;;;;;13.10;9.27;;;;;;;;;;5031791;28;20053;-66
2022/04/04 12:21:57;;;;;;;9.65;7.28;;;;;;;;;;5024044;28;20058;-66
2022/04/04 12:27:10;;;;;;;13.43;9.10;;;;;;;;;;5022822;28;20057;-66
2022/04/04 12:29:41;;;;;;;11.75;7.95;;;;;;;;;;5015129;28;20049;-66
2022/04/04 12:32:19;;;;;;;11.65;9.75;;;;;;;;;;5042016;28;20045;-66
2022/04/04 12:34:56;;;;;;;10.27;8.05;;;;;;;;;;5016296;28;20063;-66
2022/04/04 12:37:51;;;;;;;12.90;8.75;;;;;;;;;;5023493;28;20068;-66
2022/04/04 12:40:21;;;;;;;13.18;8.82;;;;;;;;;;5009357;28;20835;-65
2022/04/04 12:42:49;;;;;;;10.35;8.00;;;;;;;;;;5018110;28;20560;-65
2022/04/04 12:45:20;;;;;;;12.60;9.30;;;;;;;;;;5044442;28;20048;-66
2022/04/04 12:47:55;;;;;;;10.90;8.30;;;;;;;;;;5026842;28;20536;-66
2022/04/04 12:50:22;;;;;;;11.55;8.98;;;;;;;;;;5032331;28;20494;-66
2022/04/04 12:52:59;;;;;;;13.20;10.20;;;;;;;;;;5052468;28;20052;-66
2022/04/04 12:55:25;;;;;;;9.77;8.77;;;;;;;;;;5017223;28;20667;-66
2022/04/04 12:57:52;;;;;;;10.10;8.57;;;;;;;;;;5014912;28;20049;-66
2022/04/04 13:00:27;;;;;;;10.85;8.70;;;;;;;;;;5021151;28;20084;-66
2022/04/04 13:02:53;;;;;;;13.50;8.30;;;;;;;;;;5031649;28;20400;-66
2022/04/04 13:05:24;;;;;;;9.68;7.95;;;;;;;;;;5032139;28;20053;-66
2022/04/04 13:07:50;;;;;;;11.10;8.68;;;;;;;;;;5022938;28;20676;-66
2022/04/04 13:10:16;;;;;;;12.00;8.57;;;;;;;;;;5008187;28;20049;-66
2022/04/04 13:12:43;;;;;;;10.02;8.10;;;;;;;;;;5031916;28;20046;-66
2022/04/04 13:15:09;;;;;;;10.80;8.00;;;;;;;;;;5027057;28;20471;-66
2022/04/04 13:17:36;;;;;;;14.27;10.80;;;;;;;;;;5028770;28;20470;-66
2022/04/04 13:20:09;;;;;;;9.60;7.28;;;;;;;;;;5023018;28;20060;-66
2022/04/04 13:22:36;;;;;;;10.00;7.90;;;;;;;;;;5013161;28;20071;-66
2022/04/04 13:25:02;;;;;;;10.90;7.57;;;;;;;;;;5023173;28;20052;-67
2022/04/04 13:27:28;;;;;;;10.45;7.93;;;;;;;;;;5015463;28;20053;-67
2022/04/04 13:29:55;;;;;;;10.68;8.10;;;;;;;;;;5029794;28;20040;-67
2022/04/04 13:32:21;;;;;;;9.40;7.38;;;;;;;;;;5040329;28;20458;-67
2022/04/04 13:34:47;;;;;;;8.32;7.43;;;;;;;;;;5030145;28;20055;-67
2022/04/04 13:37:14;;;;;;;10.20;7.45;;;;;;;;;;5034921;28;20059;-67
2022/04/04 13:39:40;;;;;;;7.07;5.80;;;;;;;;;;5017846;28;20096;-66
2022/04/04 13:42:07;;;;;;;10.52;6.78;;;;;;;;;;5036629;28;20044;-67
2022/04/04 13:44:36;;;;;;;9.13;7.53;;;;;;;;;;5019418;28;20060;-67
2022/04/04 13:47:02;;;;;;;8.50;7.60;;;;;;;;;;5053086;28;20051;-67
2022/04/04 13:49:29;;;;;;;8.00;6.18;;;;;;;;;;5029723;28;20053;-67
2022/04/04 13:51:56;;;;;;;9.25;6.85;;;;;;;;;;5021628;28;20164;-67
2022/04/04 13:54:22;;;;;;;7.65;6.15;;;;;;;;;;5022489;28;20183;-66
2022/04/04 13:56:49;;;;;;;7.00;6.10;;;;;;;;;;5018812;28;20054;-67
2022/04/04 13:59:18;;;;;;;;;;;;;;;;;;5032478;28;20044;-67
2022/04/04 14:01:44;;;;;;;8.43;5.60;;;;;;;;;;5004486;28;20860;-66
2022/04/04 14:04:11;;;;;;;7.05;5.97;;;;;;;;;;5049965;28;20053;-66
2022/04/04 14:06:37;;;;;;;7.22;6.00;;;;;;;;;;5022830;28;20250;-66
2022/04/04 14:09:05;;;;;;;6.90;5.68;;;;;;;;;;5027164;28;20049;-66
2022/04/04 14:11:32;;;;;;;6.25;5.50;;;;;;;;;;5028172;28;20128;-69
2022/04/04 14:13:58;;;;;;;6.55;5.43;;;;;;;;;;5011180;28;20045;-67
2022/04/04 14:16:24;;;;;;;6.25;5.20;;;;;;;;;;5030407;28;20056;-66
2022/04/04 14:18:51;;;;;;;7.10;5.57;;;;;;;;;;5016214;28;20056;-66
2022/04/04 14:21:18;;;;;;;7.25;5.18;;;;;;;;;;5030617;28;20064;-67
2022/04/04 14:23:45;;;;;;;6.63;5.65;;;;;;;;;;5021124;28;20065;-66
2022/04/04 14:26:12;;;;;;;6.50;5.45;;;;;;;;;;4996191;28;20057;-66
2022/04/04 14:28:39;;;;;;;9.15;5.95;;;;;;;;;;5025017;28;20049;-66
2022/04/04 14:31:05;;;;;;;6.43;5.35;;;;;;;;;;5023352;28;20063;-65
2022/04/04 14:33:32;;;;;;;8.90;4.75;;;;;;;;;;5032535;28;20084;-65
2022/04/04 14:36:00;;;;;;;6.00;5.00;;;;;;;;;;5034979;28;20455;-65
2022/04/04 14:38:27;;;;;;;6.65;5.30;;;;;;;;;;5027484;28;20414;-65
2022/04/04 14:40:54;;;;;;;6.93;5.13;;;;;;;;;;5025420;28;20049;-65
2022/04/04 14:43:21;;;;;;;8.02;5.95;;;;;;;;;;5017667;28;20048;-66
2022/04/04 14:45:48;;;;;;;6.65;5.50;;;;;;;;;;5028862;28;20391;-66
2022/04/04 14:48:15;;;;;;;7.78;4.57;;;;;;;;;;5017415;28;20285;-66